Time;durP1;ratioP1;P1;durP2;ratioP2;P2;SDS_P1;SDS_P2;PMS_P1;PMS_P2;Temp;Humidity;BMP_temperature;BMP_pressure;BME280_temperature;BME280_humidity;BME280_pressure;Samples;Min_cycle;Max_cycle;Signal;HPM_P1;HPM_P2
2023/06/06 00:00:19;;;;;;;2.90;2.53;;;;;;;14.89;100.00;146473.91;6245042;23;20626;-62
2023/06/06 00:02:48;;;;;;;8.23;2.33;;;;;;;15.08;100.00;147564.41;6244717;23;20280;-62
2023/06/06 00:05:16;;;;;;;3.17;2.50;;;;;;;14.96;100.00;132028.00;6245372;23;20680;-62
2023/06/06 00:07:45;;;;;;;2.20;2.10;;;;;;;14.71;100.00;131303.47;6244643;23;20167;-62
2023/06/06 00:10:14;;;;;;;3.67;2.50;;;;;;;14.85;100.00;126657.69;6244576;23;20260;-62
2023/06/06 00:12:43;;;;;;;3.93;2.50;;;;;;;14.63;100.00;122274.81;6244689;23;20218;-62
2023/06/06 00:15:12;;;;;;;3.33;2.37;;;;;;;14.89;100.00;116328.19;6244654;23;20157;-62
2023/06/06 00:17:41;;;;;;;2.70;2.50;;;;;;;14.91;100.00;111674.50;6244618;23;20212;-62
2023/06/06 00:20:08;;;;;;;3.77;2.47;;;;;;;14.80;100.00;111985.22;6244751;23;20161;-62
2023/06/06 00:22:36;;;;;;;2.13;1.93;;;;;;;14.72;100.00;104000.09;6244468;23;20181;-62
2023/06/06 00:25:04;;;;;;;2.30;2.10;;;;;;;14.68;100.00;95380.84;6244561;23;20193;-62
2023/06/06 00:27:31;;;;;;;2.77;2.67;;;;;;;14.67;100.00;90749.53;6245240;23;20630;-62
2023/06/06 00:29:58;;;;;;;3.03;2.77;;;;;;;14.64;100.00;85793.22;6244715;23;20240;-62
2023/06/06 00:32:27;;;;;;;2.63;2.50;;;;;;;14.66;100.00;87116.16;6218312;23;20157;-62
2023/06/06 00:34:55;;;;;;;3.00;2.70;;;;;;;14.70;100.00;88772.91;6244283;23;20153;-61
2023/06/06 00:37:22;;;;;;;3.43;2.83;;;;;;;14.79;100.00;90107.19;6244535;23;20163;-63
2023/06/06 00:39:49;;;;;;;2.63;2.37;;;;;;;14.78;100.00;88785.03;6244748;23;20516;-63
2023/06/06 00:42:16;;;;;;;3.13;2.60;;;;;;;14.65;100.00;81508.25;6244320;23;20196;-62
2023/06/06 00:44:43;;;;;;;6.40;2.70;;;;;;;14.67;100.00;81181.53;6244601;23;20671;-63
2023/06/06 00:47:11;;;;;;;3.47;2.70;;;;;;;14.55;100.00;84131.09;6244179;23;20161;-61
2023/06/06 00:49:39;;;;;;;6.87;2.43;;;;;;;14.60;100.00;82490.63;6244057;23;20163;-61
2023/06/06 00:52:08;;;;;;;5.10;2.50;;;;;;;14.56;100.00;80507.47;6244296;23;20161;-62
2023/06/06 00:54:36;;;;;;;5.00;2.97;;;;;;;14.54;100.00;77541.72;6244120;23;20219;-62
2023/06/06 00:57:03;;;;;;;9.00;3.03;;;;;;;14.62;100.00;78210.63;6244256;23;20635;-62
2023/06/06 00:59:31;;;;;;;14.83;3.00;;;;;;;14.62;100.00;79857.66;6244298;23;20169;-62
2023/06/06 01:01:58;;;;;;;4.73;3.10;;;;;;;14.49;100.00;80497.84;6244359;23;20181;-62
2023/06/06 01:04:26;;;;;;;3.43;2.60;;;;;;;14.40;100.00;75220.88;6244587;23;20157;-63
2023/06/06 01:06:53;;;;;;;2.87;2.67;;;;;;;14.48;100.00;75560.66;6244461;23;20215;-62
2023/06/06 01:09:21;;;;;;;3.33;2.80;;;;;;;14.39;100.00;79497.03;6244171;23;20163;-63
2023/06/06 01:11:59;;;;;;;10.80;2.73;;;;;;;14.19;100.00;77495.91;6244323;23;20153;-62
2023/06/06 01:14:36;;;;;;;3.10;2.90;;;;;;;14.11;100.00;67962.50;6244164;23;20184;-62
2023/06/06 01:17:07;;;;;;;2.97;2.80;;;;;;;13.98;100.00;65980.09;6243900;23;20168;-63
2023/06/06 01:19:37;;;;;;;4.03;2.40;;;;;;;14.12;100.00;62720.59;6244244;23;20180;-62
2023/06/06 01:22:06;;;;;;;2.87;2.70;;;;;;;14.02;100.00;62709.78;6244345;23;20576;-62
2023/06/06 01:24:36;;;;;;;3.00;2.73;;;;;;;13.94;100.00;60082.88;6244270;23;20167;-63
2023/06/06 01:27:03;;;;;;;3.17;2.40;;;;;;;13.99;100.00;60415.72;6244452;23;20247;-62
2023/06/06 01:29:30;;;;;;;9.03;3.30;;;;;;;13.92;100.00;58773.25;6243992;23;20165;-62
2023/06/06 01:32:17;;;;;;;5.63;2.77;;;;;;;13.91;100.00;55504.31;6244433;23;20153;-63
2023/06/06 01:34:51;;;;;;;4.60;2.80;;;;;;;13.98;100.00;55837.75;6244265;23;20157;-62
2023/06/06 01:37:31;;;;;;;6.73;3.07;;;;;;;13.86;100.00;51256.28;6243981;23;20152;-62
2023/06/06 01:39:59;;;;;;;2.93;2.73;;;;;;;13.95;100.00;52895.47;6243912;23;20219;-63
2023/06/06 01:42:27;;;;;;;3.17;2.87;;;;;;;13.83;100.00;50601.28;6243891;23;20555;-62
2023/06/06 01:44:57;;;;;;;6.83;2.93;;;;;;;13.83;100.00;48645.16;6243822;23;20160;-63
2023/06/06 01:47:25;;;;;;;3.70;2.73;;;;;;;13.80;100.00;47339.19;6244093;23;20172;-62
2023/06/06 01:49:52;;;;;;;2.93;2.70;;;;;;;13.76;100.00;45707.44;6243848;23;20172;-62
2023/06/06 01:52:27;;;;;;;3.03;2.83;;;;;;;13.75;100.00;45381.03;6244018;23;20207;-62
2023/06/06 01:54:55;;;;;;;3.53;3.23;;;;;;;13.81;100.00;44734.66;6244041;23;20188;-62
2023/06/06 01:57:22;;;;;;;3.80;2.70;;;;;;;13.79;100.00;44082.09;6243871;23;20163;-62
2023/06/06 01:59:49;;;;;;;5.60;3.10;;;;;;;13.77;100.00;44731.53;6244028;23;20235;-62
2023/06/06 02:02:17;;;;;;;10.67;3.40;;;;;;;13.77;100.00;42778.97;6243730;23;20180;-62
2023/06/06 02:04:44;;;;;;;8.30;3.47;;;;;;;13.89;100.00;41161.06;6243794;23;20172;-61
2023/06/06 02:07:12;;;;;;;4.77;2.93;;;;;;;13.77;100.00;40502.41;6217465;23;20172;-61
2023/06/06 02:09:40;;;;;;;4.57;3.60;;;;;;;13.70;100.00;33353.41;6243821;23;20240;-62
2023/06/06 02:12:08;;;;;;;5.53;3.97;;;;;;;13.71;100.00;28815.91;6244244;23;20615;-62
2023/06/06 02:14:35;;;;;;;3.70;3.40;;;;;;;13.76;100.00;28494.28;6243760;23;20188;-63
2023/06/06 02:17:02;;;;;;;3.97;3.30;;;;;;;13.80;100.00;28172.41;6244422;23;20157;-62
2023/06/06 02:19:29;;;;;;;9.20;3.60;;;;;;;13.88;100.00;28500.50;6244333;23;20191;-62
2023/06/06 02:21:56;;;;;;;6.13;3.43;;;;;;;13.92;100.00;31095.53;6243612;23;20181;-62
2023/06/06 02:24:24;;;;;;;4.03;3.07;;;;;;;13.76;100.00;30438.25;6243781;23;20236;-61
2023/06/06 02:26:53;;;;;;;5.20;3.30;;;;;;;13.71;100.00;30435.75;6243750;23;20180;-61
2023/06/06 02:29:22;;;;;;;3.50;3.20;;;;;;;13.74;100.00;27845.47;6243789;23;20207;-62
2023/06/06 02:31:50;;;;;;;8.80;3.67;;;;;;;13.75;100.00;25255.97;6243924;23;20540;-62
2023/06/06 02:34:16;;;;;;;4.70;3.33;;;;;;;13.44;100.00;22008.56;6243633;23;20154;-61
2023/06/06 02:36:43;;;;;;;5.30;3.47;;;;;;;13.33;100.00;18129.41;6243584;23;20410;-62
2023/06/06 02:39:11;;;;;;;6.60;3.37;;;;;;;13.55;100.00;17814.28;6244540;23;20554;-62
2023/06/06 02:41:40;;;;;;;5.33;3.50;;;;;;;13.47;100.00;17811.38;6243863;23;20157;-62
2023/06/06 02:44:09;;;;;;;4.13;3.27;;;;;;;13.46;100.00;16842.91;6243728;23;20196;-63
2023/06/06 02:46:36;;;;;;;8.17;3.70;;;;;;;13.36;100.00;16517.06;6244139;23;20553;-62
2023/06/06 02:49:02;;;;;;;7.13;3.70;;;;;;;13.39;100.00;14260.84;6244197;23;20189;-62
2023/06/06 02:51:30;;;;;;;7.60;3.67;;;;;;;13.31;100.00;12969.41;6243987;23;20180;-62
2023/06/06 02:53:57;;;;;;;5.70;3.70;;;;;;;13.40;100.00;12327.34;6243655;23;20164;-62
2023/06/06 02:56:23;;;;;;;4.43;3.83;;;;;;;13.42;100.00;15551.34;6243734;23;20161;-62
2023/06/06 02:58:52;;;;;;;11.47;4.00;;;;;;;13.31;100.00;16192.94;6244612;23;20157;-62
2023/06/06 03:01:21;;;;;;;7.07;4.00;;;;;;;13.39;100.00;18454.09;6245618;23;20491;-62
2023/06/06 03:03:48;;;;;;;9.80;4.47;;;;;;;13.56;100.00;19105.91;6245514;23;20180;-62
2023/06/06 03:06:16;;;;;;;6.77;4.20;;;;;;;13.68;100.00;19433.47;6245284;23;20161;-62
2023/06/06 03:08:43;;;;;;;10.57;3.90;;;;;;;13.83;100.00;20731.28;6245703;23;20215;-61
2023/06/06 03:11:11;;;;;;;6.93;4.10;;;;;;;14.08;100.00;24300.09;6245668;23;20631;-63
2023/06/06 03:13:37;;;;;;;9.57;4.20;;;;;;;14.36;100.00;35991.09;6245312;23;20161;-63
2023/06/06 03:16:05;;;;;;;8.00;4.00;;;;;;;15.39;100.00;56627.84;6245330;23;20167;-62
2023/06/06 03:18:36;;;;;;;7.40;4.40;;;;;;;16.17;100.00;108247.00;6245596;23;20188;-62
2023/06/06 03:21:03;;;;;;;9.63;4.00;;;;;;;16.58;100.00;150203.78;6245613;23;20478;-62
2023/06/06 03:23:30;;;;;;;4.00;3.60;;;;;;;17.15;100.00;150347.28;6245501;23;20181;-61
2023/06/06 03:25:57;;;;;;;6.00;3.70;;;;;;;17.16;100.00;150351.13;6245482;23;20323;-62
2023/06/06 03:28:24;;;;;;;7.83;3.73;;;;;;;16.91;100.00;150287.59;6245909;23;20614;-62
2023/06/06 03:30:51;;;;;;;4.17;3.57;;;;;;;16.89;100.00;150282.50;6245672;23;20167;-62
2023/06/06 03:33:18;;;;;;;5.67;3.20;;;;;;;16.83;100.00;150267.28;6245158;23;20159;-63
2023/06/06 03:35:46;;;;;;;3.83;3.63;;;;;;;16.87;100.00;150277.44;6245119;23;20165;-62
2023/06/06 03:38:13;;;;;;;3.80;3.50;;;;;;;17.07;100.00;150326.97;6245068;23;20160;-63
2023/06/06 03:40:40;;;;;;;4.57;2.70;;;;;;;17.23;100.00;150367.63;6245182;23;20157;-62
2023/06/06 03:43:07;;;;;;;3.80;3.50;;;;;;;17.32;100.00;150390.50;6244969;23;20196;-63
2023/06/06 03:45:34;;;;;;;6.07;3.97;;;;;;;17.39;100.00;150407.03;6245553;23;20157;-62
2023/06/06 03:48:01;;;;;;;4.70;3.40;;;;;;;17.53;100.00;150443.88;6245089;23;20503;-62
2023/06/06 03:50:28;;;;;;;5.10;3.30;;;;;;;17.74;100.00;150496.03;6245060;23;20157;-62
2023/06/06 03:52:57;;;;;;;4.10;3.63;;;;;;;17.92;100.00;150540.50;6244802;23;20157;-63
2023/06/06 03:55:25;;;;;;;8.47;4.13;;;;;;;18.07;100.00;150579.94;6244973;23;20168;-63
2023/06/06 03:57:52;;;;;;;12.97;5.10;;;;;;;18.18;100.00;150606.63;6245234;23;20260;-63
2023/06/06 04:00:20;;;;;;;6.73;4.20;;;;;;;18.18;100.00;150606.63;6245019;23;20169;-63
2023/06/06 04:02:48;;;;;;;13.40;4.23;;;;;;;18.45;100.00;150675.31;6244942;23;20181;-62
2023/06/06 04:05:16;;;;;;;8.23;3.73;;;;;;;18.73;100.00;150744.00;6245453;23;20213;-63
2023/06/06 04:07:44;;;;;;;5.77;4.13;;;;;;;18.98;100.00;150807.63;6244729;23;20164;-63
2023/06/06 04:10:12;;;;;;;5.20;3.47;;;;;;;19.26;100.00;150877.63;6244903;23;20592;-63
2023/06/06 04:12:39;;;;;;;10.80;4.30;;;;;;;19.50;100.00;150938.72;6244809;23;20154;-63
2023/06/06 04:15:07;;;;;;;4.00;3.70;;;;;;;19.77;100.00;151007.47;6244741;23;20255;-62
2023/06/06 04:17:35;;;;;;;8.57;3.97;;;;;;;19.95;100.00;151052.00;6245073;23;20483;-63
2023/06/06 04:20:04;;;;;;;9.37;4.27;;;;;;;20.14;100.00;151099.13;6244833;23;20156;-63
2023/06/06 04:22:31;;;;;;;8.67;4.97;;;;;;;20.06;100.00;151080.03;6245067;23;20673;-62
2023/06/06 04:24:58;;;;;;;4.87;3.77;;;;;;;20.29;100.00;151138.63;6245085;23;20179;-63
2023/06/06 04:27:26;;;;;;;4.57;3.57;;;;;;;20.49;100.00;151189.59;6245113;23;20161;-63
2023/06/06 04:29:57;;;;;;;3.90;3.67;;;;;;;20.46;100.00;151181.91;6244702;23;20157;-62
2023/06/06 04:32:24;;;;;;;7.27;4.03;;;;;;;20.40;100.00;151165.38;6244815;23;20192;-62
2023/06/06 04:34:57;;;;;;;3.47;2.90;;;;;;;20.57;100.00;151207.41;6244880;23;20157;-63
2023/06/06 04:37:24;;;;;;;6.60;3.63;;;;;;;20.67;100.00;151234.13;6244863;23;20164;-63
2023/06/06 04:39:52;;;;;;;6.70;3.67;;;;;;;20.71;100.00;151243.09;6244573;23;20157;-62
2023/06/06 04:42:20;;;;;;;6.53;3.97;;;;;;;20.61;100.00;151217.59;6244490;23;20161;-64
2023/06/06 04:44:49;;;;;;;3.42;2.95;;;;;;;20.76;100.00;151255.78;6245083;23;20508;-62
2023/06/06 04:47:19;;;;;;;10.57;4.23;;;;;;;21.06;100.00;151330.94;6244400;23;20176;-63
2023/06/06 04:49:47;;;;;;;9.33;4.27;;;;;;;21.17;100.00;151360.34;6244844;23;20164;-62
2023/06/06 04:52:16;;;;;;;8.35;4.00;;;;;;;21.13;100.00;151350.09;6244514;23;20163;-63
2023/06/06 04:54:45;;;;;;;6.63;3.60;;;;;;;21.21;100.00;151369.25;6244363;23;20260;-63
2023/06/06 04:57:15;;;;;;;9.23;4.03;;;;;;;20.77;100.00;151258.34;6244951;23;20157;-62
2023/06/06 04:59:44;;;;;;;7.80;3.63;;;;;;;21.02;100.00;151322.03;6244757;23;20600;-63
2023/06/06 05:02:12;;;;;;;12.75;3.63;;;;;;;21.00;100.00;151316.97;6244458;23;20161;-63
2023/06/06 05:04:40;;;;;;;5.30;3.53;;;;;;;21.28;100.00;151387.06;6244808;23;20200;-63
2023/06/06 05:07:09;;;;;;;10.63;4.60;;;;;;;21.26;100.00;151383.22;6244280;23;20240;-63
2023/06/06 05:09:36;;;;;;;9.85;3.83;;;;;;;21.67;100.00;151485.22;6244203;23;20165;-63
2023/06/06 05:12:03;;;;;;;11.55;3.70;;;;;;;21.78;100.00;151513.22;6244666;23;20161;-62
2023/06/06 05:14:30;;;;;;;3.75;3.53;;;;;;;21.81;100.00;151520.91;6244085;23;20153;-61
2023/06/06 05:16:57;;;;;;;8.85;4.40;;;;;;;21.85;100.00;151532.34;6243838;23;20192;-61
2023/06/06 05:19:25;;;;;;;9.20;4.20;;;;;;;22.05;100.00;151582.13;6243858;23;20239;-59
2023/06/06 05:21:52;;;;;;;9.47;3.93;;;;;;;22.06;100.00;151584.69;6243290;23;20161;-60
2023/06/06 05:24:19;;;;;;;8.90;3.85;;;;;;;22.22;100.00;151625.50;6243511;23;20180;-60
2023/06/06 05:26:46;;;;;;;6.30;4.07;;;;;;;22.40;100.00;151670.13;6243669;23;20256;-60
2023/06/06 05:29:13;;;;;;;5.38;4.00;;;;;;;22.26;100.00;151635.69;6243971;23;20596;-60
2023/06/06 05:31:40;;;;;;;6.72;3.63;;;;;;;22.49;100.00;151691.81;6243884;23;20642;-60
2023/06/06 05:34:07;;;;;;;15.02;4.85;;;;;;;22.68;100.00;151740.25;6243818;23;20160;-60
2023/06/06 05:36:35;;;;;;;16.75;3.80;;;;;;;22.72;100.00;151750.50;6243440;23;20236;-60
2023/06/06 05:39:03;;;;;;;22.95;4.78;;;;;;;22.84;100.00;151781.09;6243579;23;20496;-60
2023/06/06 05:41:30;;;;;;;6.75;4.68;;;;;;;22.51;100.00;151696.88;6243362;23;20160;-60
2023/06/06 05:43:59;;;;;;;15.35;4.70;;;;;;;22.90;100.00;151796.44;6242441;23;20214;-60
2023/06/06 05:46:28;;;;;;;7.30;3.63;;;;;;;22.90;100.00;151796.44;6243124;23;20485;-61
2023/06/06 05:48:55;;;;;;;4.90;3.58;;;;;;;23.30;100.00;151897.19;6243173;23;20243;-60
2023/06/06 05:51:22;;;;;;;7.15;3.55;;;;;;;23.51;100.00;151950.84;6243829;23;20616;-57
2023/06/06 05:53:50;;;;;;;11.05;3.58;;;;;;;23.36;100.00;151911.25;6243612;23;20157;-61
2023/06/06 05:56:17;;;;;;;12.95;4.45;;;;;;;23.17;100.00;151864.00;6243452;23;20160;-60
2023/06/06 05:58:49;;;;;;;4.85;4.07;;;;;;;23.34;100.00;151906.16;6243583;23;20164;-59
2023/06/06 06:01:16;;;;;;;9.32;4.10;;;;;;;23.06;100.00;151837.25;6244299;23;20597;-60
2023/06/06 06:03:44;;;;;;;6.63;3.67;;;;;;;23.27;100.00;151888.28;6243631;23;20187;-60
2023/06/06 06:06:11;;;;;;;13.30;3.90;;;;;;;24.02;100.00;152079.75;6243533;23;20244;-62
2023/06/06 06:08:38;;;;;;;6.78;4.28;;;;;;;24.10;100.00;152100.16;6243693;23;20165;-60
2023/06/06 06:11:07;;;;;;;5.20;4.80;;;;;;;24.30;100.00;152150.06;6243918;23;20655;-60
2023/06/06 06:13:35;;;;;;;5.15;3.45;;;;;;;24.39;100.00;152171.75;6243005;23;20181;-60
2023/06/06 06:16:03;;;;;;;8.27;4.30;;;;;;;24.81;100.00;152277.75;6242519;23;20203;-60
2023/06/06 06:18:30;;;;;;;12.43;3.85;;;;;;;25.40;100.00;152427.25;6215208;23;20173;-60
2023/06/06 06:20:57;;;;;;;13.05;3.80;;;;;;;25.80;100.00;152529.53;6241713;23;20165;-60
2023/06/06 06:23:25;;;;;;;23.70;4.82;;;;;;;26.88;100.00;152800.69;6243253;23;20177;-61
2023/06/06 06:25:52;;;;;;;6.18;4.00;;;;;;;26.24;100.00;152640.81;6243290;23;20207;-60
2023/06/06 06:28:21;;;;;;;8.00;3.17;;;;;;;25.73;100.00;152511.66;6243168;23;20161;-60
2023/06/06 06:30:54;;;;;;;8.55;2.55;;;;;;;26.18;100.00;152624.16;6243880;23;20161;-61
2023/06/06 06:33:27;;;;;;;3.42;2.58;;;;;;;26.46;90.46;152695.78;6244610;23;20157;-60
2023/06/06 06:35:54;;;;;;;4.55;2.20;;;;;;;26.90;84.45;152805.81;6245144;23;20158;-61
2023/06/06 06:38:24;;;;;;;5.60;2.28;;;;;;;26.02;95.27;152584.50;6244918;23;20235;-60
2023/06/06 06:40:51;;;;;;;5.57;2.78;;;;;;;25.63;94.36;152486.06;6245221;23;20236;-60
2023/06/06 06:43:20;;;;;;;4.05;1.90;;;;;;;25.35;93.85;152415.75;6245057;23;20215;-59
2023/06/06 06:45:46;;;;;;;2.65;2.42;;;;;;;25.91;89.41;152556.38;6244934;23;20315;-61
2023/06/06 06:48:16;;;;;;;2.72;2.53;;;;;;;26.38;94.17;152675.34;6245087;23;20163;-60
2023/06/06 06:50:44;;;;;;;2.72;2.63;;;;;;;26.94;91.01;152816.06;6245916;23;20157;-59
2023/06/06 06:53:13;;;;;;;3.75;2.15;;;;;;;26.55;87.42;152718.81;6245689;23;20232;-60
2023/06/06 06:55:41;;;;;;;3.88;2.58;;;;;;;26.42;96.24;152684.28;6219074;23;20644;-60
2023/06/06 06:58:07;;;;;;;7.28;2.60;;;;;;;26.51;81.33;152707.28;6245657;23;20164;-59
2023/06/06 07:00:36;;;;;;;6.10;2.40;;;;;;;26.60;90.23;152730.31;6218063;23;20183;-58
2023/06/06 07:03:04;;;;;;;3.20;2.40;;;;;;;25.85;88.49;152541.03;6245860;23;20587;-60
2023/06/06 07:05:31;;;;;;;2.65;2.40;;;;;;;25.85;89.98;152542.31;6246002;23;20172;-59
2023/06/06 07:07:59;;;;;;;4.22;2.28;;;;;;;25.36;88.00;152417.03;6245989;23;20492;-59
2023/06/06 07:10:31;;;;;;;4.75;2.30;;;;;;;25.47;97.37;152445.13;6245662;23;20220;-60
2023/06/06 07:12:58;;;;;;;7.38;2.28;;;;;;;25.78;99.81;152524.44;6246857;23;20185;-59
2023/06/06 07:15:25;;;;;;;2.80;2.30;;;;;;;25.52;94.78;152457.94;6246779;23;20157;-62
2023/06/06 07:17:55;;;;;;;1.98;1.88;;;;;;;25.64;76.27;152487.34;6246442;23;20207;-62
2023/06/06 07:20:23;;;;;;;4.70;1.90;;;;;;;25.46;75.31;152442.63;6219289;23;20157;-63
2023/06/06 07:22:53;;;;;;;4.22;1.35;;;;;;;25.37;66.13;152419.63;6245665;23;20469;-64
2023/06/06 07:25:22;;;;;;;4.45;1.90;;;;;;;25.62;65.96;152483.56;6245631;23;20231;-62
2023/06/06 07:27:49;;;;;;;3.72;2.33;;;;;;;25.35;70.70;152415.75;6246233;23;20240;-62
2023/06/06 07:30:16;;;;;;;3.42;1.92;;;;;;;25.29;68.25;152399.19;6245765;23;20597;-62
2023/06/06 07:32:45;;;;;;;3.78;1.95;;;;;;;25.05;68.18;152337.81;6246159;23;20481;-62
2023/06/06 07:35:14;;;;;;;2.47;1.55;;;;;;;24.40;65.50;152174.31;6245339;23;20239;-62
2023/06/06 07:37:42;;;;;;;1.58;1.48;;;;;;;24.24;74.52;152134.72;6245684;23;20157;-61
2023/06/06 07:40:14;;;;;;;2.30;1.70;;;;;;;24.63;69.93;152231.75;6218863;23;20183;-61
2023/06/06 07:42:42;;;;;;;5.30;2.13;;;;;;;24.64;70.45;152234.31;6245237;23;20201;-61
2023/06/06 07:45:10;;;;;;;5.43;2.55;;;;;;;24.67;73.45;152241.97;6218759;23;20180;-63
2023/06/06 07:47:37;;;;;;;6.38;2.13;;;;;;;24.74;66.19;152259.88;6245626;23;20156;-61
2023/06/06 07:50:04;;;;;;;2.85;2.10;;;;;;;24.89;68.63;152299.50;6245492;23;20161;-61
2023/06/06 07:52:33;;;;;;;3.47;1.80;;;;;;;24.93;60.48;152308.44;6245141;23;20161;-62
2023/06/06 07:55:00;;;;;;;10.13;2.45;;;;;;;25.01;57.54;152330.16;6246041;23;20167;-62
2023/06/06 07:57:27;;;;;;;2.13;1.65;;;;;;;24.77;58.66;152268.81;6245824;23;20157;-65
2023/06/06 07:59:54;;;;;;;3.75;2.15;;;;;;;24.62;64.77;152230.47;6245184;23;20161;-62
2023/06/06 08:02:21;;;;;;;2.88;1.60;;;;;;;24.53;63.53;152208.75;6245898;23;20157;-62
2023/06/06 08:04:48;;;;;;;7.70;2.15;;;;;;;24.66;61.42;152240.69;6244920;23;20196;-61
2023/06/06 08:07:16;;;;;;;3.78;1.77;;;;;;;24.90;63.45;152302.09;6245150;23;20172;-62
2023/06/06 08:09:45;;;;;;;7.63;2.35;;;;;;;25.17;60.43;152368.47;6245324;23;20157;-61
2023/06/06 08:12:12;;;;;;;2.33;2.10;;;;;;;25.23;61.64;152383.81;6244955;23;20559;-62
2023/06/06 08:14:42;;;;;;;3.90;1.80;;;;;;;25.19;54.40;152374.88;6245049;23;20254;-62
2023/06/06 08:17:09;;;;;;;3.85;2.10;;;;;;;24.99;56.73;152323.78;6244939;23;20165;-64
2023/06/06 08:19:37;;;;;;;2.03;1.83;;;;;;;24.98;63.92;152322.50;6244997;23;20161;-63
2023/06/06 08:22:06;;;;;;;4.25;2.45;;;;;;;24.78;60.21;152271.34;6245534;23;20478;-62
2023/06/06 08:24:32;;;;;;;2.08;1.88;;;;;;;24.66;66.93;152240.69;6246054;23;20200;-63
2023/06/06 08:27:01;;;;;;;2.00;1.77;;;;;;;24.49;68.44;152197.25;6245868;23;20156;-62
2023/06/06 08:29:28;;;;;;;5.97;1.77;;;;;;;24.42;62.91;152179.41;6244807;23;20188;-62
2023/06/06 08:31:55;;;;;;;4.03;2.13;;;;;;;24.42;62.13;152180.69;6245047;23;20662;-62
2023/06/06 08:34:22;;;;;;;4.00;2.25;;;;;;;24.49;60.04;152197.25;6245447;23;20154;-62
2023/06/06 08:36:50;;;;;;;2.83;1.90;;;;;;;24.71;63.64;152252.19;6245246;23;20153;-62
2023/06/06 08:39:18;;;;;;;3.65;1.95;;;;;;;24.88;65.19;152295.66;6245286;23;20494;-62
2023/06/06 08:41:50;;;;;;;5.32;2.45;;;;;;;24.83;66.17;152284.13;6244870;23;20186;-62
2023/06/06 08:44:20;;;;;;;1.60;1.50;;;;;;;24.55;67.08;152213.91;6244551;23;20201;-63
2023/06/06 08:46:48;;;;;;;2.53;1.77;;;;;;;24.54;67.38;152211.31;6244581;23;20161;-64
2023/06/06 08:49:18;;;;;;;3.33;1.80;;;;;;;24.77;66.87;152268.81;6218253;23;20501;-62
2023/06/06 08:51:46;;;;;;;2.38;1.92;;;;;;;25.16;63.28;152365.94;6244506;23;20259;-62
2023/06/06 08:54:13;;;;;;;4.40;1.70;;;;;;;25.35;62.04;152414.47;6244658;23;20453;-62
2023/06/06 08:56:43;;;;;;;3.17;1.35;;;;;;;25.19;56.95;152373.59;6244567;23;20256;-62
2023/06/06 08:59:10;;;;;;;3.38;1.95;;;;;;;25.13;61.59;152358.25;6245270;23;20639;-61
2023/06/06 09:01:39;;;;;;;1.90;1.48;;;;;;;25.21;63.37;152379.97;6244963;23;20658;-62
2023/06/06 09:04:07;;;;;;;2.95;2.63;;;;;;;25.13;59.89;152358.25;6244619;23;20203;-63
2023/06/06 09:06:38;;;;;;;2.40;1.75;;;;;;;24.87;61.31;152294.38;6245791;23;20153;-62
2023/06/06 09:09:07;;;;;;;1.90;1.48;;;;;;;24.84;59.97;152286.69;6246463;23;20494;-62
2023/06/06 09:11:35;;;;;;;3.05;2.05;;;;;;;24.53;59.54;152208.75;6244582;23;20161;-62
2023/06/06 09:14:02;;;;;;;4.60;1.90;;;;;;;24.36;64.50;152165.34;6244824;23;20160;-64
2023/06/06 09:16:29;;;;;;;2.65;1.75;;;;;;;24.34;68.17;152160.25;6244815;23;20161;-63
2023/06/06 09:19:00;;;;;;;1.83;1.73;;;;;;;24.14;70.63;152110.38;6245669;23;20163;-63
2023/06/06 09:21:29;;;;;;;2.75;1.60;;;;;;;24.11;75.37;152101.47;6245070;23;20161;-64
2023/06/06 09:23:57;;;;;;;4.40;2.35;;;;;;;24.27;73.04;152141.13;6246351;23;20467;-64
2023/06/06 09:26:26;;;;;;;3.70;3.40;;;;;;;24.39;75.43;152173.03;6245271;23;20488;-65
2023/06/06 09:28:55;;;;;;;2.50;2.00;;;;;;;23.99;91.90;152072.13;6244868;23;20171;-62
2023/06/06 09:31:23;;;;;;;5.95;1.77;;;;;;;23.86;87.45;152038.91;6245627;23;20157;-63
2023/06/06 09:33:51;;;;;;;1.88;1.77;;;;;;;23.89;89.64;152045.31;6246614;23;20157;-63
2023/06/06 09:36:22;;;;;;;2.22;1.65;;;;;;;23.97;94.47;152065.75;6245128;23;20164;-63
2023/06/06 09:38:50;;;;;;;3.78;1.88;;;;;;;23.95;90.02;152060.63;6245357;23;20600;-62
2023/06/06 09:41:17;;;;;;;1.95;1.80;;;;;;;24.11;94.40;152102.75;6244230;23;20239;-64
2023/06/06 09:43:44;;;;;;;3.72;1.60;;;;;;;24.41;88.12;152178.13;6245239;23;20196;-61
2023/06/06 09:46:16;;;;;;;2.42;1.27;;;;;;;24.51;84.83;152202.41;6244914;23;20164;-63
2023/06/06 09:48:43;;;;;;;5.90;1.58;;;;;;;24.63;77.52;152231.75;6247235;23;20161;-63
2023/06/06 09:51:11;;;;;;;3.55;1.90;;;;;;;24.68;84.55;152245.81;6245515;23;20156;-64
2023/06/06 09:53:40;;;;;;;3.22;2.22;;;;;;;24.53;78.38;152208.75;6248018;23;20238;-63
2023/06/06 09:56:08;;;;;;;2.78;1.63;;;;;;;24.69;79.83;152248.38;6247159;23;20183;-62
2023/06/06 09:58:36;;;;;;;3.78;1.85;;;;;;;24.53;81.90;152207.47;6247095;23;20157;-63
2023/06/06 10:01:04;;;;;;;1.95;1.85;;;;;;;24.27;73.27;152141.13;6246541;23;20157;-63
2023/06/06 10:03:32;;;;;;;11.23;1.90;;;;;;;24.16;85.18;152114.28;6218640;23;20204;-62
2023/06/06 10:06:00;;;;;;;1.38;1.27;;;;;;;23.97;78.04;152067.03;6246606;23;20601;-63
2023/06/06 10:08:29;;;;;;;2.38;1.70;;;;;;;24.35;75.37;152161.53;6247332;23;20208;-66
2023/06/06 10:10:58;;;;;;;4.68;3.25;;;;;;;24.21;81.60;152125.78;6247583;23;20161;-65
2023/06/06 10:13:27;;;;;;;2.33;1.52;;;;;;;24.09;89.76;152096.38;6246641;23;20161;-62
2023/06/06 10:15:58;;;;;;;3.25;1.67;;;;;;;23.99;84.89;152072.13;6248936;23;20590;-63
2023/06/06 10:18:27;;;;;;;2.20;1.70;;;;;;;23.68;79.21;151992.94;6246614;23;20161;-64
2023/06/06 10:20:56;;;;;;;1.38;1.30;;;;;;;23.96;82.60;152063.19;6245930;23;20192;-63
2023/06/06 10:23:23;;;;;;;2.03;1.50;;;;;;;23.82;78.44;152027.41;6246532;23;20624;-64
2023/06/06 10:25:50;;;;;;;1.67;1.58;;;;;;;24.00;79.76;152073.41;6246444;23;20185;-64
2023/06/06 10:28:26;;;;;;;2.33;1.85;;;;;;;23.92;84.76;152052.97;6247230;23;20157;-65
2023/06/06 10:30:59;;;;;;;2.13;1.70;;;;;;;23.76;87.73;152013.41;6246411;23;20164;-66
2023/06/06 10:33:33;;;;;;;6.18;1.95;;;;;;;23.74;90.17;152008.28;6246597;23;20500;-64
2023/06/06 10:36:04;;;;;;;1.83;1.73;;;;;;;23.59;88.60;151970.03;6246273;23;20153;-64
2023/06/06 10:38:33;;;;;;;3.40;1.90;;;;;;;23.74;89.00;152008.28;6246603;23;20615;-64
2023/06/06 10:41:00;;;;;;;2.80;1.80;;;;;;;24.12;86.03;152105.31;6248527;23;20255;-63
2023/06/06 10:43:58;;;;;;;1.77;1.67;;;;;;;24.06;82.49;152089.97;6247794;23;20242;-64
2023/06/06 10:46:25;;;;;;;2.58;1.73;;;;;;;23.85;86.91;152036.34;6248545;23;20180;-64
2023/06/06 10:48:58;;;;;;;1.75;1.65;;;;;;;23.86;92.48;152038.91;6247404;23;20553;-64
2023/06/06 10:51:34;;;;;;;8.65;1.92;;;;;;;23.54;89.80;151958.53;6246972;23;20164;-64
2023/06/06 10:54:17;;;;;;;3.65;1.77;;;;;;;23.31;87.44;151898.47;6248665;23;20235;-64
2023/06/06 10:56:46;;;;;;;4.47;1.50;;;;;;;23.08;96.45;151842.38;6247683;23;20630;-63
2023/06/06 10:59:16;;;;;;;3.38;1.65;;;;;;;23.34;98.23;151906.16;6245805;23;20167;-64
2023/06/06 11:01:45;;;;;;;3.95;1.90;;;;;;;23.26;93.94;151885.72;6247342;23;20220;-64
2023/06/06 11:04:20;;;;;;;1.58;1.35;;;;;;;23.22;94.77;151876.78;6248432;23;20231;-64
2023/06/06 11:06:49;;;;;;;1.50;1.40;;;;;;;22.83;95.49;151778.53;6250105;23;20640;-63
2023/06/06 11:09:22;;;;;;;5.20;1.65;;;;;;;22.73;91.91;151753.06;6246771;23;20157;-66
2023/06/06 11:11:52;;;;;;;1.45;1.35;;;;;;;22.90;88.13;151796.44;6246477;23;20215;-64
2023/06/06 11:14:24;;;;;;;3.15;1.98;;;;;;;22.86;96.66;151786.22;6246490;23;20267;-63
2023/06/06 11:17:11;;;;;;;4.20;1.80;;;;;;;22.95;97.75;151807.91;6247615;23;20164;-64
2023/06/06 11:19:40;;;;;;;6.63;1.70;;;;;;;23.06;90.80;151837.25;6245960;23;20157;-64
2023/06/06 11:22:20;;;;;;;2.20;2.00;;;;;;;23.04;95.69;151832.13;6245958;23;20161;-64
2023/06/06 11:24:47;;;;;;;4.63;2.05;;;;;;;23.03;96.98;151828.31;6246473;23;20187;-64
2023/06/06 11:27:17;;;;;;;2.65;1.63;;;;;;;22.80;100.00;151770.91;6246736;23;20164;-66